createdAt,value
2023-03-08T00:01:55.964Z,94115.78
2023-03-08T00:04:22.597Z,94111.81
2023-03-08T00:06:49.130Z,94120.88
2023-03-08T00:09:16.260Z,94114.34
2023-03-08T00:11:43.571Z,94112.44
2023-03-08T00:14:10.022Z,94111.34
2023-03-08T00:16:36.853Z,94118.63
2023-03-08T00:19:03.438Z,94116.56
2023-03-08T00:21:30.048Z,94129.72
2023-03-08T00:23:56.602Z,94120.88
2023-03-08T00:26:23.131Z,94118.16
2023-03-08T00:28:49.869Z,94130.50
2023-03-08T00:31:16.439Z,94117.69
2023-03-08T00:33:42.933Z,94131.13
2023-03-08T00:36:14.694Z,94132.41
2023-03-08T00:38:41.376Z,94137.66
2023-03-08T00:41:08.017Z,94134.97
2023-03-08T00:43:34.701Z,94130.66
2023-03-08T00:46:04.137Z,94121.63
2023-03-08T00:48:30.911Z,94136.84
2023-03-08T00:50:57.396Z,94123.69
2023-03-08T00:53:24.063Z,94126.72
2023-03-08T00:55:52.631Z,94126.38
2023-03-08T00:58:20.005Z,94131.59
2023-03-08T01:00:47.259Z,94121.47
2023-03-08T01:03:14.899Z,94114.97
2023-03-08T01:05:47.170Z,94112.09
2023-03-08T01:08:14.792Z,94115.91
2023-03-08T01:10:47.594Z,94124.31
2023-03-08T01:13:14.265Z,94128.91
2023-03-08T01:15:41.046Z,94124.31
2023-03-08T01:18:07.718Z,94115.91
2023-03-08T01:20:35.178Z,94111.94
2023-03-08T01:23:02.826Z,94117.03
2023-03-08T01:25:29.772Z,94109.25
2023-03-08T01:27:57.113Z,94098.19
2023-03-08T01:30:24.085Z,94087.41
2023-03-08T01:32:50.605Z,94095.97
2023-03-08T01:35:18.044Z,94097.88
2023-03-08T01:37:50.688Z,94107.50
2023-03-08T01:40:17.252Z,94111.47
2023-03-08T01:42:43.810Z,94111.31
2023-03-08T01:45:47.769Z,94098.81
2023-03-08T01:48:15.963Z,94103.50
2023-03-08T01:51:15.689Z,94110.94
2023-03-08T01:53:42.961Z,94121.53
2023-03-08T01:56:13.410Z,94117.72
2023-03-08T01:58:43.676Z,94122.13
2023-03-08T02:01:10.957Z,94113.72
2023-03-08T02:03:37.646Z,94106.63
2023-03-08T02:06:05.890Z,94109.41
2023-03-08T02:08:33.045Z,94102.59
2023-03-08T02:11:01.772Z,94102.75
2023-03-08T02:13:28.759Z,94100.50
2023-03-08T02:15:57.158Z,94090.69
2023-03-08T02:18:23.683Z,94096.22
2023-03-08T02:20:50.290Z,94092.84
2023-03-08T02:23:20.045Z,94093.00
2023-03-08T02:25:59.708Z,94096.59
2023-03-08T02:28:27.550Z,94094.06
2023-03-08T02:30:55.852Z,94078.69
2023-03-08T02:33:22.896Z,94078.50
2023-03-08T02:35:50.481Z,94074.56
2023-03-08T02:38:19.926Z,94072.78
2023-03-08T02:40:46.434Z,94072.94
2023-03-08T02:43:13.204Z,94065.78
2023-03-08T02:45:39.743Z,94070.78
2023-03-08T02:48:08.046Z,94066.66
2023-03-08T02:50:34.575Z,94063.00
2023-03-08T02:53:01.281Z,94055.38
2023-03-08T02:55:27.780Z,94056.31
2023-03-08T02:57:54.697Z,94062.91
2023-03-08T03:00:21.459Z,94059.22
2023-03-08T03:02:48.327Z,94055.59
2023-03-08T03:05:14.830Z,94060.75
2023-03-08T03:07:43.456Z,94057.88
2023-03-08T03:10:15.872Z,94064.16
2023-03-08T03:12:43.035Z,94059.69
2023-03-08T03:15:13.618Z,94063.81
2023-03-08T03:17:41.673Z,94068.97
2023-03-08T03:20:09.588Z,94068.47
2023-03-08T03:22:37.133Z,94076.03
2023-03-08T03:25:06.240Z,94060.56
2023-03-08T03:27:32.896Z,94054.19
2023-03-08T03:29:59.492Z,94053.72
2023-03-08T03:32:27.077Z,94060.47
2023-03-08T03:34:54.157Z,94060.28
2023-03-08T03:37:21.980Z,94055.53
2023-03-08T03:39:49.372Z,94056.94
2023-03-08T03:42:17.954Z,94056.44
2023-03-08T03:44:51.810Z,94057.03
2023-03-08T03:47:21.120Z,94055.25
2023-03-08T03:49:52.314Z,94053.97
2023-03-08T03:52:20.443Z,94043.09
2023-03-08T03:54:56.729Z,94043.38
2023-03-08T03:57:23.394Z,94039.41
2023-03-08T03:59:50.369Z,94037.81
2023-03-08T04:02:17.011Z,94038.41
2023-03-08T04:04:50.616Z,94043.75
2023-03-08T04:07:20.499Z,94040.59
2023-03-08T04:09:55.233Z,94045.97
2023-03-08T04:12:21.812Z,94036.31
2023-03-08T04:14:49.035Z,94033.94
2023-03-08T04:17:16.885Z,94029.50
2023-03-08T04:19:52.570Z,94030.00
2023-03-08T04:22:20.891Z,94024.94
2023-03-08T04:25:00.760Z,94031.38
2023-03-08T04:27:43.374Z,94033.28
2023-03-08T04:30:11.280Z,94025.84
2023-03-08T04:32:38.142Z,94022.69
2023-03-08T04:35:05.883Z,94015.41
2023-03-08T04:37:34.133Z,94008.69
2023-03-08T04:40:06.822Z,94007.56
2023-03-08T04:42:37.111Z,94008.06
2023-03-08T04:45:04.258Z,94015.81
2023-03-08T04:47:33.294Z,94011.72
2023-03-08T04:49:59.958Z,94010.34
2023-03-08T04:52:26.506Z,94013.19
2023-03-08T04:54:53.161Z,94007.34
2023-03-08T04:57:22.729Z,94002.97
2023-03-08T04:59:51.863Z,93998.13
2023-03-08T05:02:19.567Z,93982.50
2023-03-08T05:04:47.167Z,93987.75
2023-03-08T05:07:13.792Z,93975.34
2023-03-08T05:09:42.838Z,93965.56
2023-03-08T05:12:09.693Z,93968.16
2023-03-08T05:14:56.054Z,93951.13
2023-03-08T05:17:24.873Z,93952.91
2023-03-08T05:19:51.591Z,93952.28
2023-03-08T05:22:22.483Z,93944.16
2023-03-08T05:24:51.030Z,93942.41
2023-03-08T05:27:18.606Z,93937.53
2023-03-08T05:29:46.053Z,93932.66
2023-03-08T05:32:13.554Z,93917.84
2023-03-08T05:34:40.578Z,93931.75
2023-03-08T05:37:10.501Z,93928.75
2023-03-08T05:39:39.372Z,93924.97
2023-03-08T05:42:14.823Z,93928.47
2023-03-08T05:44:43.974Z,93938.88
2023-03-08T05:47:13.015Z,93931.31
2023-03-08T05:49:39.969Z,93926.72
2023-03-08T05:52:07.739Z,93917.28
2023-03-08T05:54:35.137Z,93923.13
2023-03-08T05:57:06.829Z,93907.50
2023-03-08T05:59:34.112Z,93909.56
2023-03-08T06:02:03.375Z,93898.22
2023-03-08T06:04:36.135Z,93902.97
2023-03-08T06:07:02.831Z,93908.50
2023-03-08T06:09:35.111Z,93912.94
2023-03-08T06:12:02.916Z,93913.91
2023-03-08T06:14:29.978Z,93914.91
2023-03-08T06:16:57.215Z,93907.00
2023-03-08T06:19:29.375Z,93907.94
2023-03-08T06:21:57.358Z,93905.09
2023-03-08T06:24:23.913Z,93900.56
2023-03-08T06:26:51.337Z,93894.56
2023-03-08T06:29:17.930Z,93896.31
2023-03-08T06:31:44.798Z,93900.25
2023-03-08T06:34:12.621Z,93900.44
2023-03-08T06:36:39.982Z,93910.56
2023-03-08T06:39:06.609Z,93912.28
2023-03-08T06:41:33.373Z,93920.53
2023-03-08T06:44:02.074Z,93915.78
2023-03-08T06:46:28.842Z,93918.03
2023-03-08T06:48:55.606Z,93918.06
2023-03-08T06:51:22.963Z,93915.69
2023-03-08T06:53:50.158Z,93916.97
2023-03-08T06:56:20.395Z,93909.38
2023-03-08T06:58:46.933Z,93919.81
2023-03-08T07:01:13.844Z,93921.88
2023-03-08T07:03:40.500Z,93926.94
2023-03-08T07:06:09.562Z,93919.66
2023-03-08T07:08:37.352Z,93920.44
2023-03-08T07:11:04.852Z,93916.97
2023-03-08T07:13:31.531Z,93917.28
2023-03-08T07:15:58.352Z,93922.47
2023-03-08T07:18:25.512Z,93928.16
2023-03-08T07:20:53.548Z,93930.69
2023-03-08T07:23:20.004Z,93917.88
2023-03-08T07:25:46.482Z,93922.28
2023-03-08T07:28:13.197Z,93918.28
2023-03-08T07:30:39.886Z,93926.22
2023-03-08T07:33:06.748Z,93921.75
2023-03-08T07:35:33.288Z,93930.00
2023-03-08T07:37:59.733Z,93930.59
2023-03-08T07:40:26.359Z,93931.53
2023-03-08T07:42:52.892Z,93930.06
2023-03-08T07:45:42.669Z,93927.88
2023-03-08T07:48:09.191Z,93924.53
2023-03-08T07:50:36.669Z,93927.38
2023-03-08T07:53:03.314Z,93921.31
2023-03-08T07:55:30.113Z,93918.13
2023-03-08T07:57:56.644Z,93918.25
2023-03-08T08:00:23.232Z,93918.56
2023-03-08T08:02:49.772Z,93906.94
2023-03-08T08:05:16.404Z,93901.78
2023-03-08T08:07:46.643Z,93902.09
2023-03-08T08:10:13.120Z,93895.50
2023-03-08T08:12:39.919Z,93889.75
2023-03-08T08:15:07.250Z,93890.44
2023-03-08T08:17:33.709Z,93886.59
2023-03-08T08:20:00.538Z,93888.88
2023-03-08T08:22:27.010Z,93877.31
2023-03-08T08:24:53.568Z,93865.34
2023-03-08T08:27:20.079Z,93864.59
2023-03-08T08:29:46.725Z,93860.00
2023-03-08T08:32:13.257Z,93860.38
2023-03-08T08:34:39.838Z,93849.81
2023-03-08T08:37:06.463Z,93842.19
2023-03-08T08:39:33.004Z,93833.66
2023-03-08T08:41:59.605Z,93832.09
2023-03-08T08:44:26.192Z,93815.06
2023-03-08T08:46:52.938Z,93801.78
2023-03-08T08:49:19.395Z,93764.84
2023-03-08T08:51:45.960Z,93761.56
2023-03-08T08:54:12.616Z,93758.94
2023-03-08T08:56:39.249Z,93761.66
2023-03-08T08:59:05.972Z,93757.84
2023-03-08T09:01:33.649Z,93752.09
2023-03-08T09:04:00.508Z,93743.50
2023-03-08T09:06:28.480Z,93742.13
2023-03-08T09:08:57.874Z,93737.41
2023-03-08T09:11:25.506Z,93739.34
2023-03-08T09:13:52.608Z,93745.66
2023-03-08T09:16:23.406Z,93739.91
2023-03-08T09:18:50.855Z,93737.72
2023-03-08T09:21:18.083Z,93729.72
2023-03-08T09:23:45.378Z,93718.88
2023-03-08T09:26:12.373Z,93701.53
2023-03-08T09:28:39.070Z,93703.66
2023-03-08T09:31:08.272Z,93694.50
2023-03-08T09:33:34.716Z,93684.59
2023-03-08T09:36:01.383Z,93687.72
2023-03-08T09:38:27.840Z,93669.34
2023-03-08T09:41:33.103Z,93662.75
2023-03-08T09:44:33.169Z,93667.47
2023-03-08T09:47:13.499Z,93671.44
2023-03-08T09:49:44.351Z,93656.41
2023-03-08T09:52:17.666Z,93652.22
2023-03-08T09:54:46.022Z,93640.78
2023-03-08T09:57:24.151Z,93632.31
2023-03-08T09:59:55.747Z,93629.88
2023-03-08T10:02:36.250Z,93630.16
2023-03-08T10:05:24.836Z,93629.53
2023-03-08T10:08:00.585Z,93623.13
2023-03-08T10:10:34.664Z,93609.50
2023-03-08T10:13:24.296Z,93606.94
2023-03-08T10:15:54.357Z,93602.94
2023-03-08T10:18:39.182Z,93615.84
2023-03-08T10:21:09.846Z,93629.19
2023-03-08T10:23:38.369Z,93631.59
2023-03-08T10:26:09.608Z,93627.13
2023-03-08T10:28:36.070Z,93620.56
2023-03-08T10:31:16.082Z,93633.41
2023-03-08T10:33:42.669Z,93620.50
2023-03-08T10:36:21.505Z,93635.13
2023-03-08T10:39:00.500Z,93629.97
2023-03-08T10:41:29.126Z,93634.59
2023-03-08T10:43:56.463Z,93634.53
2023-03-08T10:46:28.767Z,93646.06
2023-03-08T10:49:05.846Z,93639.06
2023-03-08T10:51:32.529Z,93642.94
2023-03-08T10:54:01.651Z,93644.84
2023-03-08T10:56:38.672Z,93665.72
2023-03-08T10:59:07.141Z,93683.13
2023-03-08T11:01:35.881Z,93693.25
2023-03-08T11:04:15.039Z,93678.66
2023-03-08T11:06:42.065Z,93672.25
2023-03-08T11:09:38.014Z,93667.34
2023-03-08T11:12:04.882Z,93668.66
2023-03-08T11:14:31.504Z,93675.19
2023-03-08T11:17:13.149Z,93676.78
2023-03-08T11:20:01.151Z,93670.66
2023-03-08T11:22:50.221Z,93669.84
2023-03-08T11:25:20.152Z,93659.09
2023-03-08T11:28:05.362Z,93659.16
2023-03-08T11:30:43.568Z,93660.75
2023-03-08T11:33:32.998Z,93657.69
2023-03-08T11:36:18.241Z,93657.22
2023-03-08T11:38:51.810Z,93662.31
2023-03-08T11:41:29.776Z,93659.16
2023-03-08T11:44:26.082Z,93653.31
2023-03-08T11:47:24.041Z,93653.75
2023-03-08T11:50:15.416Z,93642.13
2023-03-08T11:52:53.898Z,93640.19
2023-03-08T11:55:31.855Z,93640.25
2023-03-08T11:58:03.942Z,93636.63
2023-03-08T12:00:40.114Z,93626.00
2023-03-08T12:03:18.427Z,93605.19
2023-03-08T12:05:52.559Z,93607.59
2023-03-08T12:08:29.865Z,93597.63
2023-03-08T12:11:07.935Z,93581.75
2023-03-08T12:13:39.368Z,93586.69
2023-03-08T12:16:31.017Z,93581.75
2023-03-08T12:19:19.872Z,93576.03
2023-03-08T12:22:01.481Z,93557.91
2023-03-08T12:24:52.941Z,93551.41
2023-03-08T12:27:26.053Z,93556.41
2023-03-08T12:30:16.357Z,93567.69
2023-03-08T12:32:44.262Z,93565.41
2023-03-08T12:35:22.567Z,93563.53
2023-03-08T12:38:03.193Z,93563.59
2023-03-08T12:40:48.258Z,93560.03
2023-03-08T12:43:32.952Z,93563.16
2023-03-08T12:45:59.575Z,93557.88
2023-03-08T12:48:29.678Z,93557.56
2023-03-08T12:51:18.500Z,93556.38
2023-03-08T12:53:50.828Z,93554.78
2023-03-08T12:56:29.897Z,93556.78
2023-03-08T12:59:02.287Z,93559.81
2023-03-08T13:01:43.806Z,93561.91
2023-03-08T13:04:40.042Z,93551.06
2023-03-08T13:07:21.448Z,93557.63
2023-03-08T13:09:54.999Z,93559.66
2023-03-08T13:12:39.849Z,93567.03
2023-03-08T13:15:12.111Z,93564.00
2023-03-08T13:17:41.677Z,93567.88
2023-03-08T13:20:24.497Z,93563.25
2023-03-08T13:23:01.611Z,93570.66
2023-03-08T13:25:41.468Z,93565.66
2023-03-08T13:28:46.725Z,93566.38
2023-03-08T13:31:20.525Z,93568.50
2023-03-08T13:33:58.247Z,93573.25
2023-03-08T13:36:26.893Z,93565.13
2023-03-08T13:39:02.275Z,93571.72
2023-03-08T13:41:48.691Z,93548.22
2023-03-08T13:44:21.226Z,93554.13
2023-03-08T13:46:51.415Z,93553.56
2023-03-08T13:49:27.142Z,93551.81
2023-03-08T13:51:57.411Z,93556.22
2023-03-08T13:54:28.603Z,93553.78
2023-03-08T13:57:00.157Z,93545.03
2023-03-08T13:59:27.279Z,93532.34
2023-03-08T14:01:54.534Z,93550.75
2023-03-08T14:04:30.944Z,93553.00
2023-03-08T14:06:59.938Z,93543.88
2023-03-08T14:09:27.492Z,93544.75
2023-03-08T14:12:06.577Z,93533.38
2023-03-08T14:14:37.032Z,93522.31
2023-03-08T14:17:05.010Z,93530.00
2023-03-08T14:19:36.034Z,93530.81
2023-03-08T14:22:10.228Z,93524.66
2023-03-08T14:24:37.212Z,93525.91
2023-03-08T14:27:31.218Z,93522.84
2023-03-08T14:30:17.837Z,93504.53
2023-03-08T14:33:14.022Z,93527.97
2023-03-08T14:35:45.184Z,93524.97
2023-03-08T14:38:32.745Z,93532.00
2023-03-08T14:41:03.529Z,93527.31
2023-03-08T14:43:30.046Z,93532.03
2023-03-08T14:46:05.434Z,93528.97
2023-03-08T14:48:36.963Z,93551.53
2023-03-08T14:51:25.479Z,93520.84
2023-03-08T14:54:00.417Z,93510.41
2023-03-08T14:56:29.212Z,93520.50
2023-03-08T14:59:00.387Z,93508.03
2023-03-08T15:01:32.702Z,93504.22
2023-03-08T15:03:59.754Z,93508.88
2023-03-08T15:06:32.917Z,93501.88
2023-03-08T15:09:00.979Z,93497.25
2023-03-08T15:11:28.828Z,93486.22
2023-03-08T15:13:55.301Z,93484.03
2023-03-08T15:16:21.855Z,93488.75
2023-03-08T15:18:48.370Z,93483.41
2023-03-08T15:21:20.700Z,93462.75
2023-03-08T15:23:47.627Z,93456.16
2023-03-08T15:26:18.308Z,93455.47
2023-03-08T15:28:44.987Z,93456.28
2023-03-08T15:31:11.453Z,93441.47
2023-03-08T15:33:37.911Z,93439.56
2023-03-08T15:36:05.270Z,93436.13
2023-03-08T15:38:31.811Z,93442.72
2023-03-08T15:40:58.272Z,93447.00
2023-03-08T15:43:24.813Z,93435.34
2023-03-08T15:45:51.299Z,93432.63
2023-03-08T15:48:18.813Z,93424.06
2023-03-08T15:50:45.707Z,93435.75
2023-03-08T15:53:18.400Z,93420.56
2023-03-08T15:55:50.065Z,93422.13
2023-03-08T15:58:16.516Z,93426.81
2023-03-08T16:00:43.061Z,93417.44
2023-03-08T16:03:13.646Z,93420.97
2023-03-08T16:05:40.499Z,93413.16
2023-03-08T16:08:07.038Z,93402.25
2023-03-08T16:10:35.173Z,93407.34
2023-03-08T16:13:01.913Z,93405.44
2023-03-08T16:15:28.428Z,93399.59
2023-03-08T16:17:54.902Z,93404.22
2023-03-08T16:20:21.377Z,93409.28
2023-03-08T16:22:47.868Z,93411.59
2023-03-08T16:25:14.352Z,93411.59
2023-03-08T16:27:40.897Z,93407.28
2023-03-08T16:30:08.418Z,93403.78
2023-03-08T16:32:34.982Z,93402.59
2023-03-08T16:35:01.515Z,93393.63
2023-03-08T16:37:28.158Z,93385.00
2023-03-08T16:39:55.001Z,93391.66
2023-03-08T16:42:22.234Z,93392.41
2023-03-08T16:44:51.493Z,93383.00
2023-03-08T16:47:19.231Z,93378.34
2023-03-08T16:49:46.042Z,93380.25
2023-03-08T16:52:14.597Z,93382.91
2023-03-08T16:54:41.262Z,93382.09
2023-03-08T16:57:18.603Z,93384.41
2023-03-08T16:59:45.794Z,93387.06
2023-03-08T17:02:17.590Z,93392.16
2023-03-08T17:04:44.339Z,93377.31
2023-03-08T17:07:11.373Z,93388.97
2023-03-08T17:09:39.315Z,93396.34
2023-03-08T17:12:06.801Z,93398.63
2023-03-08T17:14:34.839Z,93396.69
2023-03-08T17:17:02.345Z,93390.09
2023-03-08T17:19:28.879Z,93387.28
2023-03-08T17:21:55.653Z,93395.09
2023-03-08T17:24:22.733Z,93384.16
2023-03-08T17:26:52.461Z,93392.25
2023-03-08T17:29:19.507Z,93391.84
2023-03-08T17:31:46.357Z,93386.78
2023-03-08T17:34:12.826Z,93395.75
2023-03-08T17:36:39.700Z,93399.56
2023-03-08T17:39:06.315Z,93406.91
2023-03-08T17:41:32.826Z,93394.88
2023-03-08T17:43:59.385Z,93406.53
2023-03-08T17:46:26.498Z,93412.75
2023-03-08T17:48:54.449Z,93412.75
2023-03-08T17:51:24.772Z,93425.16
2023-03-08T17:53:51.551Z,93432.94
2023-03-08T17:56:23.535Z,93430.56
2023-03-08T17:58:50.004Z,93424.75
2023-03-08T18:01:18.947Z,93432.53
2023-03-08T18:03:46.393Z,93430.56
2023-03-08T18:06:24.341Z,93438.69
2023-03-08T18:08:51.693Z,93425.47
2023-03-08T18:11:18.174Z,93420.41
2023-03-08T18:13:44.976Z,93416.50
2023-03-08T18:16:11.454Z,93402.91
2023-03-08T18:18:38.009Z,93423.13
2023-03-08T18:21:13.149Z,93414.97
2023-03-08T18:23:41.524Z,93409.91
2023-03-08T18:26:08.019Z,93429.69
2023-03-08T18:28:34.497Z,93435.88
2023-03-08T18:31:06.125Z,93435.09
2023-03-08T18:33:32.708Z,93424.16
2023-03-08T18:35:59.284Z,93433.44
2023-03-08T18:38:25.833Z,93440.41
2023-03-08T18:40:52.611Z,93443.13
2023-03-08T18:43:19.191Z,93450.47
2023-03-08T18:45:53.357Z,93450.44
2023-03-08T18:48:21.372Z,93456.66
2023-03-08T18:50:47.846Z,93456.25
2023-03-08T18:53:15.027Z,93452.31
2023-03-08T18:55:52.152Z,93447.25
2023-03-08T18:58:18.636Z,93453.06
2023-03-08T19:00:45.106Z,93453.41
2023-03-08T19:03:11.739Z,93463.47
2023-03-08T19:05:38.222Z,93467.97
2023-03-08T19:08:04.747Z,93472.25
2023-03-08T19:10:33.209Z,93476.53
2023-03-08T19:12:59.788Z,93472.19
2023-03-08T19:15:26.457Z,93471.75
2023-03-08T19:17:57.235Z,93491.13
2023-03-08T19:20:24.038Z,93485.69
2023-03-08T19:22:50.672Z,93505.41
2023-03-08T19:25:17.191Z,93515.19
2023-03-08T19:27:43.787Z,93553.06
2023-03-08T19:30:11.012Z,93542.94
2023-03-08T19:32:37.621Z,93548.19
2023-03-08T19:35:04.498Z,93559.97
2023-03-08T19:37:31.097Z,93571.41
2023-03-08T19:39:58.499Z,93557.41
2023-03-08T19:42:25.776Z,93556.38
2023-03-08T19:44:52.258Z,93558.59
2023-03-08T19:47:19.114Z,93572.41
2023-03-08T19:49:45.977Z,93568.63
2023-03-08T19:52:13.305Z,93571.22
2023-03-08T19:54:40.713Z,93564.38
2023-03-08T19:57:07.900Z,93548.28
2023-03-08T19:59:34.433Z,93527.22
2023-03-08T20:02:00.921Z,93534.88
2023-03-08T20:04:31.217Z,93562.72
2023-03-08T20:07:01.360Z,93569.63
2023-03-08T20:09:28.381Z,93573.56
2023-03-08T20:11:58.463Z,93568.09
2023-03-08T20:14:26.581Z,93548.69
2023-03-08T20:16:53.176Z,93548.59
2023-03-08T20:19:19.773Z,93544.97
2023-03-08T20:21:46.593Z,93541.13
2023-03-08T20:24:13.069Z,93540.72
2023-03-08T20:26:39.598Z,93540.28
2023-03-08T20:29:06.218Z,93530.75
2023-03-08T20:31:33.040Z,93521.78
2023-03-08T20:33:59.756Z,93533.31
2023-03-08T20:36:26.564Z,93543.34
2023-03-08T20:38:53.054Z,93582.06
2023-03-08T20:41:21.171Z,93573.88
2023-03-08T20:43:48.388Z,93583.03
2023-03-08T20:46:17.507Z,93559.09
2023-03-08T20:48:46.233Z,93551.84
2023-03-08T20:51:17.689Z,93537.38
2023-03-08T20:53:44.972Z,93542.84
2023-03-08T20:56:16.046Z,93531.50
2023-03-08T20:58:43.145Z,93536.06
2023-03-08T21:01:12.407Z,93541.91
2023-03-08T21:03:39.161Z,93542.34
2023-03-08T21:06:23.526Z,93550.47
2023-03-08T21:08:50.666Z,93523.38
2023-03-08T21:11:17.811Z,93511.94
2023-03-08T21:13:48.057Z,93517.72
2023-03-08T21:16:16.294Z,93513.94
2023-03-08T21:18:43.188Z,93499.66
2023-03-08T21:21:17.808Z,93490.41
2023-03-08T21:23:44.293Z,93490.41
2023-03-08T21:26:12.602Z,93482.34
2023-03-08T21:28:40.570Z,93471.97
2023-03-08T21:31:10.998Z,93471.16
2023-03-08T21:33:37.714Z,93468.09
2023-03-08T21:36:04.666Z,93463.84
2023-03-08T21:38:31.279Z,93452.31
2023-03-08T21:40:57.817Z,93452.31
2023-03-08T21:43:24.534Z,93456.91
2023-03-08T21:45:51.043Z,93450.31
2023-03-08T21:48:17.751Z,93447.94
2023-03-08T21:50:44.576Z,93452.66
2023-03-08T21:53:11.085Z,93443.00
2023-03-08T21:55:41.592Z,93434.13
2023-03-08T21:58:09.017Z,93443.00
2023-03-08T22:00:35.694Z,93434.47
2023-03-08T22:03:02.352Z,93431.75
2023-03-08T22:05:30.300Z,93422.50
2023-03-08T22:07:57.346Z,93421.34
2023-03-08T22:10:23.898Z,93418.22
2023-03-08T22:12:50.508Z,93428.69
2023-03-08T22:15:17.025Z,93410.47
2023-03-08T22:17:43.651Z,93408.53
2023-03-08T22:20:11.079Z,93405.94
2023-03-08T22:22:38.810Z,93403.56
2023-03-08T22:25:07.112Z,93409.75
2023-03-08T22:27:34.112Z,93403.56
2023-03-08T22:30:00.739Z,93399.69
2023-03-08T22:32:27.445Z,93404.00
2023-03-08T22:34:54.100Z,93393.44
2023-03-08T22:37:21.066Z,93384.16
2023-03-08T22:39:47.683Z,93388.72
2023-03-08T22:42:16.495Z,93382.97
2023-03-08T22:44:43.472Z,93388.72
2023-03-08T22:47:10.055Z,93384.44
2023-03-08T22:49:36.672Z,93391.44
2023-03-08T22:52:03.430Z,93389.88
2023-03-08T22:54:30.264Z,93382.88
2023-03-08T22:56:56.883Z,93382.09
2023-03-08T22:59:23.576Z,93388.28
2023-03-08T23:01:50.085Z,93386.75
2023-03-08T23:04:16.964Z,93391.72
2023-03-08T23:06:44.114Z,93385.16
2023-03-08T23:09:11.566Z,93379.34
2023-03-08T23:11:39.059Z,93385.47
2023-03-08T23:14:09.420Z,93387.31
2023-03-08T23:16:36.408Z,93380.69
2023-03-08T23:19:03.587Z,93374.34
2023-03-08T23:21:30.630Z,93381.25
2023-03-08T23:23:57.925Z,93374.91
2023-03-08T23:26:26.000Z,93378.69
2023-03-08T23:28:57.547Z,93382.56
2023-03-08T23:31:27.463Z,93384.84
2023-03-08T23:33:54.381Z,93385.97
2023-03-08T23:36:24.234Z,93384.84
2023-03-08T23:38:51.567Z,93386.75
2023-03-08T23:41:18.240Z,93387.03
2023-03-08T23:43:45.565Z,93390.16
2023-03-08T23:46:14.856Z,93388.44
2023-03-08T23:48:41.964Z,93387.03
2023-03-08T23:51:12.464Z,93387.03
2023-03-08T23:53:39.361Z,93388.16
2023-03-08T23:56:06.868Z,93387.91
2023-03-08T23:58:33.592Z,93391.75
